sensor_id;sensor_type;location;lat;lon;timestamp;temperature;humidity
31837;DHT22;18401;49.344;6.240;2023-04-07T00:02:16;7.60;99.90
31837;DHT22;18401;49.344;6.240;2023-04-07T00:04:42;7.50;99.90
31837;DHT22;18401;49.344;6.240;2023-04-07T00:07:08;7.50;99.90
31837;DHT22;18401;49.344;6.240;2023-04-07T00:09:34;7.50;99.90
31837;DHT22;18401;49.344;6.240;2023-04-07T00:11:59;7.50;99.90
31837;DHT22;18401;49.344;6.240;2023-04-07T00:14:28;7.50;99.90
31837;DHT22;18401;49.344;6.240;2023-04-07T00:16:54;7.50;99.90
31837;DHT22;18401;49.344;6.240;2023-04-07T00:19:19;7.50;99.90
31837;DHT22;18401;49.344;6.240;2023-04-07T00:21:45;7.40;99.90
31837;DHT22;18401;49.344;6.240;2023-04-07T00:24:11;7.30;99.90
31837;DHT22;18401;49.344;6.240;2023-04-07T00:26:36;7.20;99.90
31837;DHT22;18401;49.344;6.240;2023-04-07T00:29:02;7.10;99.90
31837;DHT22;18401;49.344;6.240;2023-04-07T00:31:28;7.10;99.90
31837;DHT22;18401;49.344;6.240;2023-04-07T00:33:54;7.00;99.90
31837;DHT22;18401;49.344;6.240;2023-04-07T00:36:20;6.80;99.90
31837;DHT22;18401;49.344;6.240;2023-04-07T00:38:46;6.70;99.90
31837;DHT22;18401;49.344;6.240;2023-04-07T00:41:12;6.60;99.90
31837;DHT22;18401;49.344;6.240;2023-04-07T00:43:37;6.60;99.90
31837;DHT22;18401;49.344;6.240;2023-04-07T00:46:03;6.60;99.90
31837;DHT22;18401;49.344;6.240;2023-04-07T00:48:29;6.60;99.90
31837;DHT22;18401;49.344;6.240;2023-04-07T00:50:55;6.80;99.90
31837;DHT22;18401;49.344;6.240;2023-04-07T00:53:21;6.80;99.90
31837;DHT22;18401;49.344;6.240;2023-04-07T00:55:47;6.70;99.90
31837;DHT22;18401;49.344;6.240;2023-04-07T00:58:12;6.80;99.90
31837;DHT22;18401;49.344;6.240;2023-04-07T01:04:06;6.80;99.90
31837;DHT22;18401;49.344;6.240;2023-04-07T01:06:36;6.80;99.90
31837;DHT22;18401;49.344;6.240;2023-04-07T01:09:12;6.70;99.90
31837;DHT22;18401;49.344;6.240;2023-04-07T01:11:43;6.70;99.90
31837;DHT22;18401;49.344;6.240;2023-04-07T01:14:12;6.70;99.90
31837;DHT22;18401;49.344;6.240;2023-04-07T01:16:48;6.60;99.90
31837;DHT22;18401;49.344;6.240;2023-04-07T01:19:36;6.50;99.90
31837;DHT22;18401;49.344;6.240;2023-04-07T01:22:13;6.40;99.90
31837;DHT22;18401;49.344;6.240;2023-04-07T01:27:33;6.40;99.90
31837;DHT22;18401;49.344;6.240;2023-04-07T01:30:02;6.30;99.90
31837;DHT22;18401;49.344;6.240;2023-04-07T01:32:29;6.20;99.90
31837;DHT22;18401;49.344;6.240;2023-04-07T01:34:56;6.10;99.90
31837;DHT22;18401;49.344;6.240;2023-04-07T01:37:22;6.10;99.90
31837;DHT22;18401;49.344;6.240;2023-04-07T01:39:49;5.90;99.90
31837;DHT22;18401;49.344;6.240;2023-04-07T01:42:16;5.90;99.90
31837;DHT22;18401;49.344;6.240;2023-04-07T01:44:43;5.80;99.90
31837;DHT22;18401;49.344;6.240;2023-04-07T01:47:10;5.60;99.90
31837;DHT22;18401;49.344;6.240;2023-04-07T01:49:37;5.50;99.90
31837;DHT22;18401;49.344;6.240;2023-04-07T01:52:04;5.50;99.90
31837;DHT22;18401;49.344;6.240;2023-04-07T01:54:30;5.50;99.90
31837;DHT22;18401;49.344;6.240;2023-04-07T01:56:56;5.40;99.90
31837;DHT22;18401;49.344;6.240;2023-04-07T01:59:22;5.30;99.90
31837;DHT22;18401;49.344;6.240;2023-04-07T02:01:47;5.20;99.90
31837;DHT22;18401;49.344;6.240;2023-04-07T02:04:20;5.20;99.90
31837;DHT22;18401;49.344;6.240;2023-04-07T02:06:53;5.10;99.90
31837;DHT22;18401;49.344;6.240;2023-04-07T02:09:20;5.10;99.90
31837;DHT22;18401;49.344;6.240;2023-04-07T02:11:48;5.10;99.90
31837;DHT22;18401;49.344;6.240;2023-04-07T02:14:16;5.10;99.90
31837;DHT22;18401;49.344;6.240;2023-04-07T02:16:42;5.10;99.90
31837;DHT22;18401;49.344;6.240;2023-04-07T02:19:10;5.20;99.90
31837;DHT22;18401;49.344;6.240;2023-04-07T02:21:36;5.30;99.90
31837;DHT22;18401;49.344;6.240;2023-04-07T02:24:07;5.40;99.90
31837;DHT22;18401;49.344;6.240;2023-04-07T02:26:34;5.60;99.90
31837;DHT22;18401;49.344;6.240;2023-04-07T02:29:01;5.70;99.90
31837;DHT22;18401;49.344;6.240;2023-04-07T02:31:27;5.70;99.90
31837;DHT22;18401;49.344;6.240;2023-04-07T02:33:52;5.70;99.90
31837;DHT22;18401;49.344;6.240;2023-04-07T02:36:18;5.70;99.90
31837;DHT22;18401;49.344;6.240;2023-04-07T02:38:43;5.80;99.90
31837;DHT22;18401;49.344;6.240;2023-04-07T02:41:09;5.80;99.90
31837;DHT22;18401;49.344;6.240;2023-04-07T02:43:35;5.80;99.90
31837;DHT22;18401;49.344;6.240;2023-04-07T02:46:00;5.80;99.90
31837;DHT22;18401;49.344;6.240;2023-04-07T02:48:26;5.90;99.90
31837;DHT22;18401;49.344;6.240;2023-04-07T02:50:51;5.80;99.90
31837;DHT22;18401;49.344;6.240;2023-04-07T02:53:17;5.80;99.90
31837;DHT22;18401;49.344;6.240;2023-04-07T02:55:43;5.90;99.90
31837;DHT22;18401;49.344;6.240;2023-04-07T02:58:08;5.90;99.90
31837;DHT22;18401;49.344;6.240;2023-04-07T03:00:34;5.90;99.90
31837;DHT22;18401;49.344;6.240;2023-04-07T03:03:00;5.90;99.90
31837;DHT22;18401;49.344;6.240;2023-04-07T03:05:26;5.90;99.90
31837;DHT22;18401;49.344;6.240;2023-04-07T03:07:51;6.00;99.90
31837;DHT22;18401;49.344;6.240;2023-04-07T03:10:17;6.00;99.90
31837;DHT22;18401;49.344;6.240;2023-04-07T03:12:43;6.10;99.90
31837;DHT22;18401;49.344;6.240;2023-04-07T03:15:09;6.10;99.90
31837;DHT22;18401;49.344;6.240;2023-04-07T03:17:34;6.10;99.90
31837;DHT22;18401;49.344;6.240;2023-04-07T03:20:00;6.10;99.90
31837;DHT22;18401;49.344;6.240;2023-04-07T03:22:26;6.10;99.90
31837;DHT22;18401;49.344;6.240;2023-04-07T03:24:52;6.20;99.90
31837;DHT22;18401;49.344;6.240;2023-04-07T03:27:17;6.20;99.90
31837;DHT22;18401;49.344;6.240;2023-04-07T03:29:44;6.20;99.90
31837;DHT22;18401;49.344;6.240;2023-04-07T03:32:11;6.30;99.90
31837;DHT22;18401;49.344;6.240;2023-04-07T03:34:37;6.20;99.90
31837;DHT22;18401;49.344;6.240;2023-04-07T03:37:02;6.30;99.90
31837;DHT22;18401;49.344;6.240;2023-04-07T03:39:28;6.20;99.90
31837;DHT22;18401;49.344;6.240;2023-04-07T03:41:54;6.20;99.90
31837;DHT22;18401;49.344;6.240;2023-04-07T03:44:20;6.20;99.90
31837;DHT22;18401;49.344;6.240;2023-04-07T03:46:46;6.20;99.90
31837;DHT22;18401;49.344;6.240;2023-04-07T03:49:13;6.20;99.90
31837;DHT22;18401;49.344;6.240;2023-04-07T03:51:38;6.30;99.90
31837;DHT22;18401;49.344;6.240;2023-04-07T03:54:04;6.40;99.90
31837;DHT22;18401;49.344;6.240;2023-04-07T03:56:30;6.40;99.90
31837;DHT22;18401;49.344;6.240;2023-04-07T03:58:56;6.50;99.90
31837;DHT22;18401;49.344;6.240;2023-04-07T04:01:22;6.50;99.90
31837;DHT22;18401;49.344;6.240;2023-04-07T04:03:48;6.50;99.90
31837;DHT22;18401;49.344;6.240;2023-04-07T04:06:14;6.50;99.90
31837;DHT22;18401;49.344;6.240;2023-04-07T04:08:40;6.50;99.90
31837;DHT22;18401;49.344;6.240;2023-04-07T04:11:06;6.60;99.90
31837;DHT22;18401;49.344;6.240;2023-04-07T04:13:31;6.60;99.90
31837;DHT22;18401;49.344;6.240;2023-04-07T04:15:57;6.60;99.90
31837;DHT22;18401;49.344;6.240;2023-04-07T04:18:23;6.60;99.90
31837;DHT22;18401;49.344;6.240;2023-04-07T04:20:48;6.50;99.90
31837;DHT22;18401;49.344;6.240;2023-04-07T04:23:15;6.50;99.90
31837;DHT22;18401;49.344;6.240;2023-04-07T04:25:40;6.50;99.90
31837;DHT22;18401;49.344;6.240;2023-04-07T04:28:06;6.50;99.90
31837;DHT22;18401;49.344;6.240;2023-04-07T04:30:32;6.50;99.90
31837;DHT22;18401;49.344;6.240;2023-04-07T04:32:57;6.60;99.90
31837;DHT22;18401;49.344;6.240;2023-04-07T04:35:23;6.50;99.90
31837;DHT22;18401;49.344;6.240;2023-04-07T04:37:50;6.60;99.90
31837;DHT22;18401;49.344;6.240;2023-04-07T04:40:16;6.60;99.90
31837;DHT22;18401;49.344;6.240;2023-04-07T04:42:41;6.60;99.90
31837;DHT22;18401;49.344;6.240;2023-04-07T04:45:07;6.60;99.90
31837;DHT22;18401;49.344;6.240;2023-04-07T04:47:33;6.60;99.90
31837;DHT22;18401;49.344;6.240;2023-04-07T04:49:59;6.50;99.90
31837;DHT22;18401;49.344;6.240;2023-04-07T04:52:24;6.50;99.90
31837;DHT22;18401;49.344;6.240;2023-04-07T04:54:51;6.50;99.90
31837;DHT22;18401;49.344;6.240;2023-04-07T04:57:17;6.40;99.90
31837;DHT22;18401;49.344;6.240;2023-04-07T04:59:42;6.30;99.90
31837;DHT22;18401;49.344;6.240;2023-04-07T05:02:08;6.20;99.90
31837;DHT22;18401;49.344;6.240;2023-04-07T05:04:34;6.30;99.90
31837;DHT22;18401;49.344;6.240;2023-04-07T05:06:59;6.20;99.90
31837;DHT22;18401;49.344;6.240;2023-04-07T05:09:25;6.10;99.90
31837;DHT22;18401;49.344;6.240;2023-04-07T05:11:51;6.00;99.90
31837;DHT22;18401;49.344;6.240;2023-04-07T05:14:17;5.90;99.90
31837;DHT22;18401;49.344;6.240;2023-04-07T05:16:42;5.70;99.90
31837;DHT22;18401;49.344;6.240;2023-04-07T05:19:08;5.50;99.90
31837;DHT22;18401;49.344;6.240;2023-04-07T05:21:34;5.40;99.90
31837;DHT22;18401;49.344;6.240;2023-04-07T05:23:59;5.20;99.90
31837;DHT22;18401;49.344;6.240;2023-04-07T05:26:25;5.10;99.90
31837;DHT22;18401;49.344;6.240;2023-04-07T05:28:51;5.20;99.90
31837;DHT22;18401;49.344;6.240;2023-04-07T05:31:17;5.40;99.90
31837;DHT22;18401;49.344;6.240;2023-04-07T05:33:42;5.50;99.90
31837;DHT22;18401;49.344;6.240;2023-04-07T05:36:08;5.70;99.90
31837;DHT22;18401;49.344;6.240;2023-04-07T05:38:34;5.80;99.90
31837;DHT22;18401;49.344;6.240;2023-04-07T05:40:59;5.90;99.90
31837;DHT22;18401;49.344;6.240;2023-04-07T05:43:25;6.00;99.90
31837;DHT22;18401;49.344;6.240;2023-04-07T05:45:51;6.10;99.90
31837;DHT22;18401;49.344;6.240;2023-04-07T05:48:16;6.30;99.90
31837;DHT22;18401;49.344;6.240;2023-04-07T05:50:42;6.30;99.90
31837;DHT22;18401;49.344;6.240;2023-04-07T05:53:08;6.50;99.90
31837;DHT22;18401;49.344;6.240;2023-04-07T05:55:33;6.60;99.90
31837;DHT22;18401;49.344;6.240;2023-04-07T05:57:59;6.70;99.90
31837;DHT22;18401;49.344;6.240;2023-04-07T06:00:25;6.80;99.90
31837;DHT22;18401;49.344;6.240;2023-04-07T06:02:51;6.80;99.90
31837;DHT22;18401;49.344;6.240;2023-04-07T06:05:17;6.90;99.90
31837;DHT22;18401;49.344;6.240;2023-04-07T06:07:42;6.90;99.90
31837;DHT22;18401;49.344;6.240;2023-04-07T06:10:08;7.10;99.90
31837;DHT22;18401;49.344;6.240;2023-04-07T06:12:34;7.20;99.90
31837;DHT22;18401;49.344;6.240;2023-04-07T06:14:59;7.30;99.90
31837;DHT22;18401;49.344;6.240;2023-04-07T06:17:25;7.30;99.90
31837;DHT22;18401;49.344;6.240;2023-04-07T06:19:51;7.30;99.90
31837;DHT22;18401;49.344;6.240;2023-04-07T06:22:16;7.30;99.90
31837;DHT22;18401;49.344;6.240;2023-04-07T06:24:42;7.20;99.90
31837;DHT22;18401;49.344;6.240;2023-04-07T06:27:08;7.20;99.90
31837;DHT22;18401;49.344;6.240;2023-04-07T06:29:34;7.30;99.90
31837;DHT22;18401;49.344;6.240;2023-04-07T06:31:59;7.40;99.90
31837;DHT22;18401;49.344;6.240;2023-04-07T06:34:25;7.50;99.90
31837;DHT22;18401;49.344;6.240;2023-04-07T06:36:51;7.70;99.90
31837;DHT22;18401;49.344;6.240;2023-04-07T06:39:17;7.80;99.90
31837;DHT22;18401;49.344;6.240;2023-04-07T06:41:42;7.90;99.90
31837;DHT22;18401;49.344;6.240;2023-04-07T06:44:09;8.10;99.90
31837;DHT22;18401;49.344;6.240;2023-04-07T06:46:35;8.10;99.90
31837;DHT22;18401;49.344;6.240;2023-04-07T06:49:01;8.20;99.90
31837;DHT22;18401;49.344;6.240;2023-04-07T06:51:29;8.40;99.90
31837;DHT22;18401;49.344;6.240;2023-04-07T06:53:56;8.60;99.90
31837;DHT22;18401;49.344;6.240;2023-04-07T06:56:22;8.80;99.90
31837;DHT22;18401;49.344;6.240;2023-04-07T06:58:48;8.80;99.90
31837;DHT22;18401;49.344;6.240;2023-04-07T07:01:14;8.90;99.90
31837;DHT22;18401;49.344;6.240;2023-04-07T07:03:40;9.00;99.90
31837;DHT22;18401;49.344;6.240;2023-04-07T07:06:06;9.10;99.90
31837;DHT22;18401;49.344;6.240;2023-04-07T07:08:31;9.10;99.90
31837;DHT22;18401;49.344;6.240;2023-04-07T07:10:57;9.10;99.90
31837;DHT22;18401;49.344;6.240;2023-04-07T07:13:24;9.00;99.90
31837;DHT22;18401;49.344;6.240;2023-04-07T07:15:51;8.90;99.90
31837;DHT22;18401;49.344;6.240;2023-04-07T07:18:17;8.80;99.90
31837;DHT22;18401;49.344;6.240;2023-04-07T07:20:43;8.80;99.90
31837;DHT22;18401;49.344;6.240;2023-04-07T07:23:09;8.90;99.90
31837;DHT22;18401;49.344;6.240;2023-04-07T07:25:35;9.10;99.90
31837;DHT22;18401;49.344;6.240;2023-04-07T07:28:01;9.30;99.90
31837;DHT22;18401;49.344;6.240;2023-04-07T07:30:26;9.50;99.90
31837;DHT22;18401;49.344;6.240;2023-04-07T07:32:53;9.50;99.90
31837;DHT22;18401;49.344;6.240;2023-04-07T07:35:20;9.40;99.90
31837;DHT22;18401;49.344;6.240;2023-04-07T07:37:45;9.20;99.90
31837;DHT22;18401;49.344;6.240;2023-04-07T07:40:11;9.00;99.90
31837;DHT22;18401;49.344;6.240;2023-04-07T07:42:37;8.90;99.90
31837;DHT22;18401;49.344;6.240;2023-04-07T07:45:04;8.90;99.90
31837;DHT22;18401;49.344;6.240;2023-04-07T07:47:30;8.90;99.90
31837;DHT22;18401;49.344;6.240;2023-04-07T07:49:56;8.90;99.90
31837;DHT22;18401;49.344;6.240;2023-04-07T07:52:22;9.00;99.90
31837;DHT22;18401;49.344;6.240;2023-04-07T07:54:48;8.90;99.90
31837;DHT22;18401;49.344;6.240;2023-04-07T07:57:14;9.00;99.90
31837;DHT22;18401;49.344;6.240;2023-04-07T07:59:40;9.00;99.90
31837;DHT22;18401;49.344;6.240;2023-04-07T08:02:06;8.80;99.90
31837;DHT22;18401;49.344;6.240;2023-04-07T08:04:32;8.80;99.90
31837;DHT22;18401;49.344;6.240;2023-04-07T08:06:58;8.70;99.90
31837;DHT22;18401;49.344;6.240;2023-04-07T08:09:24;8.50;99.90
31837;DHT22;18401;49.344;6.240;2023-04-07T08:11:49;8.40;99.90
31837;DHT22;18401;49.344;6.240;2023-04-07T08:14:16;8.50;99.90
31837;DHT22;18401;49.344;6.240;2023-04-07T08:16:42;8.50;99.90
31837;DHT22;18401;49.344;6.240;2023-04-07T08:19:08;8.60;99.90
31837;DHT22;18401;49.344;6.240;2023-04-07T08:21:34;8.60;99.90
31837;DHT22;18401;49.344;6.240;2023-04-07T08:23:59;8.50;99.90
31837;DHT22;18401;49.344;6.240;2023-04-07T08:26:25;8.50;99.90
31837;DHT22;18401;49.344;6.240;2023-04-07T08:28:52;8.40;99.90
31837;DHT22;18401;49.344;6.240;2023-04-07T08:31:18;8.50;99.90
31837;DHT22;18401;49.344;6.240;2023-04-07T08:33:44;8.40;99.90
31837;DHT22;18401;49.344;6.240;2023-04-07T08:36:09;8.30;99.90
31837;DHT22;18401;49.344;6.240;2023-04-07T08:38:35;8.30;99.90
31837;DHT22;18401;49.344;6.240;2023-04-07T08:41:10;8.30;99.90
31837;DHT22;18401;49.344;6.240;2023-04-07T08:43:37;8.20;99.90
31837;DHT22;18401;49.344;6.240;2023-04-07T08:46:04;8.10;99.90
31837;DHT22;18401;49.344;6.240;2023-04-07T08:48:30;8.10;99.90
31837;DHT22;18401;49.344;6.240;2023-04-07T08:51:08;8.10;99.90
31837;DHT22;18401;49.344;6.240;2023-04-07T08:53:47;8.10;99.90
31837;DHT22;18401;49.344;6.240;2023-04-07T08:56:18;8.20;99.90
31837;DHT22;18401;49.344;6.240;2023-04-07T08:58:47;8.20;99.90
31837;DHT22;18401;49.344;6.240;2023-04-07T09:01:13;8.20;99.90
31837;DHT22;18401;49.344;6.240;2023-04-07T09:03:41;8.20;99.90
31837;DHT22;18401;49.344;6.240;2023-04-07T09:06:09;8.30;99.90
31837;DHT22;18401;49.344;6.240;2023-04-07T09:08:35;8.40;99.90
31837;DHT22;18401;49.344;6.240;2023-04-07T09:11:01;8.50;99.90
31837;DHT22;18401;49.344;6.240;2023-04-07T09:13:27;8.60;99.90
31837;DHT22;18401;49.344;6.240;2023-04-07T09:15:52;8.70;99.90
31837;DHT22;18401;49.344;6.240;2023-04-07T09:18:18;8.80;99.90
31837;DHT22;18401;49.344;6.240;2023-04-07T09:20:57;8.90;99.90
31837;DHT22;18401;49.344;6.240;2023-04-07T09:23:32;8.90;99.90
31837;DHT22;18401;49.344;6.240;2023-04-07T09:25:59;8.90;99.90
31837;DHT22;18401;49.344;6.240;2023-04-07T09:28:37;8.80;99.90
31837;DHT22;18401;49.344;6.240;2023-04-07T09:31:05;8.90;99.90
31837;DHT22;18401;49.344;6.240;2023-04-07T09:33:32;9.00;99.90
31837;DHT22;18401;49.344;6.240;2023-04-07T09:35:58;9.10;99.90
31837;DHT22;18401;49.344;6.240;2023-04-07T09:38:35;9.20;99.90
31837;DHT22;18401;49.344;6.240;2023-04-07T09:41:16;9.20;99.90
31837;DHT22;18401;49.344;6.240;2023-04-07T09:43:44;9.20;99.90
31837;DHT22;18401;49.344;6.240;2023-04-07T09:46:15;9.10;99.90
31837;DHT22;18401;49.344;6.240;2023-04-07T09:48:43;9.10;99.90
31837;DHT22;18401;49.344;6.240;2023-04-07T09:51:12;9.00;99.90
31837;DHT22;18401;49.344;6.240;2023-04-07T09:53:49;9.10;99.90
31837;DHT22;18401;49.344;6.240;2023-04-07T09:56:17;9.10;99.90
31837;DHT22;18401;49.344;6.240;2023-04-07T09:58:45;9.10;99.90
31837;DHT22;18401;49.344;6.240;2023-04-07T10:01:12;9.00;99.90
31837;DHT22;18401;49.344;6.240;2023-04-07T10:03:38;8.90;99.90
31837;DHT22;18401;49.344;6.240;2023-04-07T10:06:05;8.90;99.90
31837;DHT22;18401;49.344;6.240;2023-04-07T10:08:33;9.00;99.90
31837;DHT22;18401;49.344;6.240;2023-04-07T10:11:03;9.00;99.90
31837;DHT22;18401;49.344;6.240;2023-04-07T10:13:30;9.10;99.90
31837;DHT22;18401;49.344;6.240;2023-04-07T10:15:57;9.20;99.90
31837;DHT22;18401;49.344;6.240;2023-04-07T10:18:28;9.10;99.90
31837;DHT22;18401;49.344;6.240;2023-04-07T10:20:56;9.20;99.90
31837;DHT22;18401;49.344;6.240;2023-04-07T10:23:31;9.10;99.90
31837;DHT22;18401;49.344;6.240;2023-04-07T10:25:59;9.20;99.90
31837;DHT22;18401;49.344;6.240;2023-04-07T10:28:26;9.20;99.90
31837;DHT22;18401;49.344;6.240;2023-04-07T10:30:54;9.20;99.90
31837;DHT22;18401;49.344;6.240;2023-04-07T10:36:11;9.30;99.90
31837;DHT22;18401;49.344;6.240;2023-04-07T10:38:37;9.30;99.90
31837;DHT22;18401;49.344;6.240;2023-04-07T10:41:34;9.50;99.90
31837;DHT22;18401;49.344;6.240;2023-04-07T10:44:02;9.50;99.90
31837;DHT22;18401;49.344;6.240;2023-04-07T10:49:16;9.50;99.90
31837;DHT22;18401;49.344;6.240;2023-04-07T10:51:42;9.40;99.90
31837;DHT22;18401;49.344;6.240;2023-04-07T10:54:21;9.30;99.90
31837;DHT22;18401;49.344;6.240;2023-04-07T10:59:28;9.30;99.90
31837;DHT22;18401;49.344;6.240;2023-04-07T11:04:42;9.30;99.90
31837;DHT22;18401;49.344;6.240;2023-04-07T11:07:09;9.30;99.90
31837;DHT22;18401;49.344;6.240;2023-04-07T11:09:35;9.40;99.90
31837;DHT22;18401;49.344;6.240;2023-04-07T11:12:01;9.50;99.90
31837;DHT22;18401;49.344;6.240;2023-04-07T11:14:27;9.70;99.90
31837;DHT22;18401;49.344;6.240;2023-04-07T11:16:53;9.70;99.90
31837;DHT22;18401;49.344;6.240;2023-04-07T11:19:19;9.60;99.90
31837;DHT22;18401;49.344;6.240;2023-04-07T11:21:45;9.70;99.90
31837;DHT22;18401;49.344;6.240;2023-04-07T11:24:31;9.50;99.90
31837;DHT22;18401;49.344;6.240;2023-04-07T11:26:57;9.50;99.90
31837;DHT22;18401;49.344;6.240;2023-04-07T11:29:30;9.50;99.90
31837;DHT22;18401;49.344;6.240;2023-04-07T11:31:58;9.50;99.90
31837;DHT22;18401;49.344;6.240;2023-04-07T11:34:31;9.40;99.90
31837;DHT22;18401;49.344;6.240;2023-04-07T11:36:58;9.40;99.90
31837;DHT22;18401;49.344;6.240;2023-04-07T11:39:42;9.50;99.90
31837;DHT22;18401;49.344;6.240;2023-04-07T11:42:10;9.50;99.90
31837;DHT22;18401;49.344;6.240;2023-04-07T11:44:44;9.50;99.90
31837;DHT22;18401;49.344;6.240;2023-04-07T11:47:10;9.60;99.90
31837;DHT22;18401;49.344;6.240;2023-04-07T11:49:43;9.80;99.90
31837;DHT22;18401;49.344;6.240;2023-04-07T11:52:09;9.90;99.90
31837;DHT22;18401;49.344;6.240;2023-04-07T11:54:42;9.90;99.90
31837;DHT22;18401;49.344;6.240;2023-04-07T11:57:08;9.70;99.90
31837;DHT22;18401;49.344;6.240;2023-04-07T11:59:36;9.70;99.90
31837;DHT22;18401;49.344;6.240;2023-04-07T12:02:03;9.60;99.90
31837;DHT22;18401;49.344;6.240;2023-04-07T12:04:28;9.60;99.90
31837;DHT22;18401;49.344;6.240;2023-04-07T12:07:09;9.70;99.90
31837;DHT22;18401;49.344;6.240;2023-04-07T12:09:35;9.60;99.90
31837;DHT22;18401;49.344;6.240;2023-04-07T12:12:02;9.60;99.90
31837;DHT22;18401;49.344;6.240;2023-04-07T12:14:30;9.50;99.90
31837;DHT22;18401;49.344;6.240;2023-04-07T12:16:57;9.60;99.90
31837;DHT22;18401;49.344;6.240;2023-04-07T12:19:25;9.80;99.90
31837;DHT22;18401;49.344;6.240;2023-04-07T12:21:52;9.90;99.90
31837;DHT22;18401;49.344;6.240;2023-04-07T12:24:18;10.20;99.90
31837;DHT22;18401;49.344;6.240;2023-04-07T12:26:44;10.50;99.90
31837;DHT22;18401;49.344;6.240;2023-04-07T12:29:09;11.00;99.90
31837;DHT22;18401;49.344;6.240;2023-04-07T12:31:35;11.20;99.90
31837;DHT22;18401;49.344;6.240;2023-04-07T12:34:02;11.40;99.90
31837;DHT22;18401;49.344;6.240;2023-04-07T12:36:27;11.50;99.90
31837;DHT22;18401;49.344;6.240;2023-04-07T12:38:54;11.30;99.90
31837;DHT22;18401;49.344;6.240;2023-04-07T12:41:20;10.60;99.90
31837;DHT22;18401;49.344;6.240;2023-04-07T12:43:46;10.10;99.90
31837;DHT22;18401;49.344;6.240;2023-04-07T12:46:11;9.70;99.90
31837;DHT22;18401;49.344;6.240;2023-04-07T12:48:37;9.60;99.90
31837;DHT22;18401;49.344;6.240;2023-04-07T12:51:03;9.50;99.90
31837;DHT22;18401;49.344;6.240;2023-04-07T12:53:29;9.40;99.90
31837;DHT22;18401;49.344;6.240;2023-04-07T12:55:54;9.30;99.90
31837;DHT22;18401;49.344;6.240;2023-04-07T12:58:21;9.20;99.90
31837;DHT22;18401;49.344;6.240;2023-04-07T13:00:46;9.40;99.90
31837;DHT22;18401;49.344;6.240;2023-04-07T13:03:12;9.50;99.90
31837;DHT22;18401;49.344;6.240;2023-04-07T13:05:38;9.80;99.90
31837;DHT22;18401;49.344;6.240;2023-04-07T13:08:04;10.00;99.90
31837;DHT22;18401;49.344;6.240;2023-04-07T13:10:30;10.30;99.90
31837;DHT22;18401;49.344;6.240;2023-04-07T13:12:56;11.10;99.90
31837;DHT22;18401;49.344;6.240;2023-04-07T13:15:21;11.80;99.90
31837;DHT22;18401;49.344;6.240;2023-04-07T13:17:47;12.00;99.90
31837;DHT22;18401;49.344;6.240;2023-04-07T13:20:13;12.80;99.90
31837;DHT22;18401;49.344;6.240;2023-04-07T13:22:38;13.20;99.90
31837;DHT22;18401;49.344;6.240;2023-04-07T13:25:04;13.80;99.90
31837;DHT22;18401;49.344;6.240;2023-04-07T13:27:30;15.40;99.90
31837;DHT22;18401;49.344;6.240;2023-04-07T13:29:56;15.40;99.90
31837;DHT22;18401;49.344;6.240;2023-04-07T13:32:21;15.50;99.90
31837;DHT22;18401;49.344;6.240;2023-04-07T13:34:48;15.50;99.90
31837;DHT22;18401;49.344;6.240;2023-04-07T13:37:13;15.50;99.90
31837;DHT22;18401;49.344;6.240;2023-04-07T13:39:40;15.30;99.90
31837;DHT22;18401;49.344;6.240;2023-04-07T13:42:06;14.70;99.90
31837;DHT22;18401;49.344;6.240;2023-04-07T13:44:34;15.80;99.90
31837;DHT22;18401;49.344;6.240;2023-04-07T13:47:01;15.10;99.90
31837;DHT22;18401;49.344;6.240;2023-04-07T13:49:28;14.70;99.90
31837;DHT22;18401;49.344;6.240;2023-04-07T13:51:53;15.00;99.90
31837;DHT22;18401;49.344;6.240;2023-04-07T13:54:19;16.60;99.90
31837;DHT22;18401;49.344;6.240;2023-04-07T13:56:45;15.90;99.90
31837;DHT22;18401;49.344;6.240;2023-04-07T13:59:13;16.90;99.90
31837;DHT22;18401;49.344;6.240;2023-04-07T14:01:39;18.00;99.90
31837;DHT22;18401;49.344;6.240;2023-04-07T14:04:06;16.10;99.90
31837;DHT22;18401;49.344;6.240;2023-04-07T14:06:32;15.30;99.90
31837;DHT22;18401;49.344;6.240;2023-04-07T14:08:58;14.70;99.90
31837;DHT22;18401;49.344;6.240;2023-04-07T14:11:24;14.70;99.90
31837;DHT22;18401;49.344;6.240;2023-04-07T14:13:51;15.00;99.90
31837;DHT22;18401;49.344;6.240;2023-04-07T14:16:17;15.50;99.90
31837;DHT22;18401;49.344;6.240;2023-04-07T14:18:43;15.40;99.90
31837;DHT22;18401;49.344;6.240;2023-04-07T14:21:09;15.50;99.90
31837;DHT22;18401;49.344;6.240;2023-04-07T14:23:35;14.90;76.10
31837;DHT22;18401;49.344;6.240;2023-04-07T14:26:01;14.30;73.50
31837;DHT22;18401;49.344;6.240;2023-04-07T14:28:27;13.90;73.90
31837;DHT22;18401;49.344;6.240;2023-04-07T14:30:53;13.70;71.70
31837;DHT22;18401;49.344;6.240;2023-04-07T14:33:20;13.80;90.90
31837;DHT22;18401;49.344;6.240;2023-04-07T14:35:46;14.10;87.80
31837;DHT22;18401;49.344;6.240;2023-04-07T14:38:12;14.20;69.00
31837;DHT22;18401;49.344;6.240;2023-04-07T14:40:38;14.10;66.40
31837;DHT22;18401;49.344;6.240;2023-04-07T14:43:04;13.90;68.60
31837;DHT22;18401;49.344;6.240;2023-04-07T14:45:31;13.50;64.30
31837;DHT22;18401;49.344;6.240;2023-04-07T14:47:57;13.30;63.30
31837;DHT22;18401;49.344;6.240;2023-04-07T14:50:22;13.10;62.50
31837;DHT22;18401;49.344;6.240;2023-04-07T14:52:49;13.90;73.60
31837;DHT22;18401;49.344;6.240;2023-04-07T14:55:14;14.70;67.70
31837;DHT22;18401;49.344;6.240;2023-04-07T14:57:40;15.20;47.90
31837;DHT22;18401;49.344;6.240;2023-04-07T15:00:07;15.10;39.80
31837;DHT22;18401;49.344;6.240;2023-04-07T15:02:34;14.80;32.40
31837;DHT22;18401;49.344;6.240;2023-04-07T15:05:01;15.30;33.50
31837;DHT22;18401;49.344;6.240;2023-04-07T15:07:26;15.10;18.00
31837;DHT22;18401;49.344;6.240;2023-04-07T15:09:52;16.10;15.20
31837;DHT22;18401;49.344;6.240;2023-04-07T15:12:18;16.30;1.00
31837;DHT22;18401;49.344;6.240;2023-04-07T15:14:44;15.80;1.00
31837;DHT22;18401;49.344;6.240;2023-04-07T15:17:12;16.70;8.70
31837;DHT22;18401;49.344;6.240;2023-04-07T15:19:38;18.50;1.00
31837;DHT22;18401;49.344;6.240;2023-04-07T15:22:04;19.70;99.90
31837;DHT22;18401;49.344;6.240;2023-04-07T15:24:29;18.70;99.90
31837;DHT22;18401;49.344;6.240;2023-04-07T15:26:55;15.90;1.00
31837;DHT22;18401;49.344;6.240;2023-04-07T15:29:21;14.50;1.00
31837;DHT22;18401;49.344;6.240;2023-04-07T15:31:46;13.70;2.70
31837;DHT22;18401;49.344;6.240;2023-04-07T15:34:12;13.20;18.30
31837;DHT22;18401;49.344;6.240;2023-04-07T15:36:38;13.10;27.70
31837;DHT22;18401;49.344;6.240;2023-04-07T15:39:05;13.00;24.90
31837;DHT22;18401;49.344;6.240;2023-04-07T15:41:31;12.80;23.20
31837;DHT22;18401;49.344;6.240;2023-04-07T15:44:01;12.70;22.10
31837;DHT22;18401;49.344;6.240;2023-04-07T15:46:27;12.60;18.70
31837;DHT22;18401;49.344;6.240;2023-04-07T15:48:53;12.40;24.60
31837;DHT22;18401;49.344;6.240;2023-04-07T15:51:19;12.20;23.60
31837;DHT22;18401;49.344;6.240;2023-04-07T15:53:44;12.10;33.00
31837;DHT22;18401;49.344;6.240;2023-04-07T15:56:10;12.00;57.80
31837;DHT22;18401;49.344;6.240;2023-04-07T15:58:36;12.00;57.30